createdAt,value
2022-10-18T00:00:18.793Z,10.73
2022-10-18T00:02:45.527Z,11.67
2022-10-18T00:05:12.220Z,9.97
2022-10-18T00:07:38.943Z,10.80
2022-10-18T00:10:06.223Z,12.07
2022-10-18T00:12:35.466Z,11.23
2022-10-18T00:15:02.965Z,11.23
2022-10-18T00:17:29.926Z,17.27
2022-10-18T00:19:56.874Z,13.30
2022-10-18T00:22:23.800Z,12.07
2022-10-18T00:24:50.497Z,10.47
2022-10-18T00:27:18.380Z,11.43
2022-10-18T00:29:45.282Z,17.90
2022-10-18T00:32:14.909Z,12.17
2022-10-18T00:34:41.545Z,15.53
2022-10-18T00:37:08.238Z,11.07
2022-10-18T00:39:35.238Z,16.97
2022-10-18T00:42:03.552Z,13.67
2022-10-18T00:44:30.207Z,14.33
2022-10-18T00:47:02.370Z,12.03
2022-10-18T00:49:34.126Z,13.73
2022-10-18T00:52:11.578Z,17.13
2022-10-18T00:54:41.797Z,12.60
2022-10-18T00:57:10.390Z,9.63
2022-10-18T00:59:37.623Z,9.43
2022-10-18T01:02:05.769Z,10.70
2022-10-18T01:04:32.794Z,10.33
2022-10-18T01:07:05.130Z,11.03
2022-10-18T01:09:56.445Z,12.20
2022-10-18T01:12:35.148Z,22.53
2022-10-18T01:15:28.268Z,17.53
2022-10-18T01:18:03.937Z,14.07
2022-10-18T01:21:13.308Z,12.90
2022-10-18T01:24:28.270Z,11.03
2022-10-18T01:27:03.925Z,12.30
2022-10-18T01:29:39.838Z,18.10
2022-10-18T01:32:24.482Z,12.73
2022-10-18T01:34:57.248Z,16.10
2022-10-18T01:37:26.331Z,8.83
2022-10-18T01:39:56.568Z,9.20
2022-10-18T01:42:24.098Z,7.77
2022-10-18T01:44:52.876Z,7.27
2022-10-18T01:47:21.669Z,9.73
2022-10-18T01:49:48.354Z,13.23
2022-10-18T01:52:16.408Z,12.23
2022-10-18T01:54:49.094Z,9.43
2022-10-18T01:57:31.722Z,59.30
2022-10-18T02:00:24.703Z,26.57
2022-10-18T02:02:58.826Z,26.47
2022-10-18T02:05:34.647Z,43.20
2022-10-18T02:08:22.044Z,24.10
2022-10-18T02:10:54.380Z,21.67
2022-10-18T02:13:23.669Z,35.93
2022-10-18T02:15:56.427Z,15.73
2022-10-18T02:18:32.722Z,10.67
2022-10-18T02:21:03.103Z,15.83
2022-10-18T02:23:31.441Z,15.70
2022-10-18T02:25:58.272Z,13.83
2022-10-18T02:31:15.928Z,14.30
2022-10-18T02:33:57.009Z,13.97
2022-10-18T02:36:45.528Z,14.63
2022-10-18T02:39:18.709Z,16.60
2022-10-18T02:41:45.649Z,15.07
2022-10-18T02:44:12.360Z,15.93
2022-10-18T02:46:40.010Z,17.27
2022-10-18T02:49:07.245Z,15.90
2022-10-18T02:51:33.875Z,46.77
2022-10-18T02:54:00.620Z,44.33
2022-10-18T02:56:27.289Z,26.40
2022-10-18T02:58:54.310Z,25.60
2022-10-18T03:01:21.097Z,22.03
2022-10-18T03:03:47.906Z,27.67
2022-10-18T03:06:14.584Z,66.57
2022-10-18T03:08:41.268Z,85.70
2022-10-18T03:11:08.050Z,84.40
2022-10-18T03:13:35.133Z,49.03
2022-10-18T03:16:02.306Z,67.23
2022-10-18T03:18:29.140Z,83.87
2022-10-18T03:20:55.831Z,53.97
2022-10-18T03:23:22.511Z,25.73
2022-10-18T03:25:49.239Z,25.00
2022-10-18T03:28:15.947Z,20.93
2022-10-18T03:30:42.570Z,21.13
2022-10-18T03:33:09.840Z,22.03
2022-10-18T03:35:36.468Z,18.40
2022-10-18T03:38:03.287Z,17.70
2022-10-18T03:42:57.536Z,27.50
2022-10-18T03:45:28.845Z,48.37
2022-10-18T03:47:57.932Z,50.63
2022-10-18T03:50:24.615Z,39.93
2022-10-18T03:52:51.268Z,39.97
2022-10-18T03:55:17.945Z,32.33
2022-10-18T03:57:44.612Z,29.57
2022-10-18T04:00:12.735Z,27.27
2022-10-18T04:02:39.583Z,27.70
2022-10-18T04:05:07.611Z,31.80
2022-10-18T04:10:07.638Z,28.17
2022-10-18T04:12:34.594Z,14.57
2022-10-18T04:15:01.628Z,10.50
2022-10-18T04:17:28.338Z,11.80
2022-10-18T04:19:55.064Z,11.83
2022-10-18T04:22:21.727Z,13.20
2022-10-18T04:24:48.480Z,13.70
2022-10-18T04:27:15.179Z,14.53
2022-10-18T04:29:41.860Z,15.87
2022-10-18T04:32:08.643Z,16.57
2022-10-18T04:34:35.314Z,16.07
2022-10-18T04:37:01.999Z,17.27
2022-10-18T04:39:28.798Z,17.43
2022-10-18T04:41:55.516Z,16.63
2022-10-18T04:44:22.977Z,16.80
2022-10-18T04:46:49.819Z,18.93
2022-10-18T04:49:16.500Z,19.67
2022-10-18T04:51:43.161Z,17.57
2022-10-18T04:54:09.803Z,45.80
2022-10-18T04:56:36.502Z,41.50
2022-10-18T04:59:03.250Z,58.23
2022-10-18T05:01:30.026Z,52.73
2022-10-18T05:03:56.731Z,91.83
2022-10-18T05:06:23.561Z,91.47
2022-10-18T05:08:50.298Z,74.50
2022-10-18T05:11:16.993Z,50.07
2022-10-18T05:13:46.040Z,44.33
2022-10-18T05:16:16.101Z,31.93
2022-10-18T05:18:43.390Z,20.90
2022-10-18T05:21:10.088Z,18.57
2022-10-18T05:23:36.791Z,19.13
2022-10-18T05:26:06.664Z,21.87
2022-10-18T05:28:39.261Z,23.17
2022-10-18T05:31:09.839Z,24.10
2022-10-18T05:33:36.553Z,22.87
2022-10-18T05:36:03.466Z,19.87
2022-10-18T05:38:33.067Z,18.70
2022-10-18T05:41:00.170Z,21.03
2022-10-18T05:43:30.382Z,32.10
2022-10-18T05:45:57.212Z,23.17
2022-10-18T05:48:23.921Z,23.93
2022-10-18T05:50:50.602Z,23.70
2022-10-18T05:53:36.722Z,25.23
2022-10-18T05:56:04.278Z,26.03
2022-10-18T05:58:30.951Z,23.67
2022-10-18T06:01:01.937Z,28.97
2022-10-18T06:03:30.978Z,28.45
2022-10-18T06:06:04.891Z,27.50
2022-10-18T06:08:31.742Z,27.08
2022-10-18T06:10:58.478Z,35.15
2022-10-18T06:13:25.220Z,30.27
2022-10-18T06:15:57.282Z,31.50
2022-10-18T06:18:24.113Z,29.33
2022-10-18T06:20:56.848Z,27.13
2022-10-18T06:23:23.559Z,27.88
2022-10-18T06:25:50.214Z,25.27
2022-10-18T06:28:16.862Z,24.75
2022-10-18T06:30:44.466Z,27.23
2022-10-18T06:33:12.072Z,21.35
2022-10-18T06:35:38.755Z,17.15
2022-10-18T06:38:08.362Z,28.08
2022-10-18T06:40:38.118Z,31.80
2022-10-18T06:43:20.705Z,29.20
2022-10-18T06:45:48.806Z,26.20
2022-10-18T06:48:16.336Z,23.77
2022-10-18T06:50:43.456Z,24.80
2022-10-18T06:53:10.239Z,26.45
2022-10-18T06:55:36.890Z,20.17
2022-10-18T06:58:03.668Z,11.75
2022-10-18T07:00:30.352Z,13.65
2022-10-18T07:02:58.381Z,16.27
2022-10-18T07:05:25.181Z,18.67
2022-10-18T07:07:54.342Z,16.02
2022-10-18T07:10:24.300Z,15.73
2022-10-18T07:12:53.487Z,20.90
2022-10-18T07:15:24.298Z,18.08
2022-10-18T07:17:51.108Z,18.50
2022-10-18T07:20:17.967Z,15.60
2022-10-18T07:22:44.619Z,13.45
2022-10-18T07:25:11.294Z,11.02
2022-10-18T07:27:40.008Z,10.98
2022-10-18T07:30:08.609Z,12.07
2022-10-18T07:32:35.490Z,12.27
2022-10-18T07:35:02.537Z,8.43
2022-10-18T07:37:30.414Z,10.77
2022-10-18T07:39:57.236Z,10.77
2022-10-18T07:42:23.954Z,9.20
2022-10-18T07:44:50.810Z,9.40
2022-10-18T07:47:18.183Z,8.00
2022-10-18T07:49:45.227Z,9.15
2022-10-18T07:52:11.949Z,8.10
2022-10-18T07:54:38.703Z,7.25
2022-10-18T07:57:05.493Z,6.07
2022-10-18T07:59:32.220Z,8.40
2022-10-18T08:01:59.005Z,9.25
2022-10-18T08:04:31.452Z,7.25
2022-10-18T08:06:58.140Z,5.60
2022-10-18T08:09:24.826Z,6.97
2022-10-18T08:11:51.519Z,13.27
2022-10-18T08:14:18.493Z,5.47
2022-10-18T08:16:45.339Z,7.65
2022-10-18T08:19:12.148Z,7.22
2022-10-18T08:21:38.824Z,7.57
2022-10-18T08:24:05.817Z,6.32
2022-10-18T08:26:32.748Z,6.13
2022-10-18T08:29:17.777Z,6.68
2022-10-18T08:31:46.096Z,8.15
2022-10-18T08:34:17.298Z,5.75
2022-10-18T08:36:46.287Z,6.00
2022-10-18T08:39:12.962Z,9.27
2022-10-18T08:42:07.396Z,9.35
2022-10-18T08:44:44.067Z,6.45
2022-10-18T08:47:21.369Z,7.40
2022-10-18T08:49:56.757Z,10.93
2022-10-18T08:53:17.398Z,11.18
2022-10-18T08:55:54.805Z,6.95
2022-10-18T08:58:24.781Z,5.20
2022-10-18T09:01:24.609Z,5.10
2022-10-18T09:04:16.275Z,5.45
2022-10-18T09:06:58.250Z,6.22
2022-10-18T09:09:36.975Z,8.95
2022-10-18T09:12:03.965Z,4.97
2022-10-18T09:14:46.835Z,3.95
2022-10-18T09:17:43.194Z,5.22
2022-10-18T09:20:22.134Z,5.07
2022-10-18T09:22:53.730Z,3.85
2022-10-18T09:25:23.699Z,4.15
2022-10-18T09:27:55.975Z,5.45
2022-10-18T09:30:39.676Z,4.63
2022-10-18T09:33:12.521Z,5.25
2022-10-18T09:36:08.362Z,4.50
2022-10-18T09:38:45.383Z,4.07
2022-10-18T09:41:15.098Z,3.70
2022-10-18T09:43:56.655Z,4.93
2022-10-18T09:46:26.781Z,4.38
2022-10-18T09:48:59.523Z,4.32
2022-10-18T09:51:30.840Z,2.58
2022-10-18T09:54:22.174Z,3.35
2022-10-18T09:57:03.607Z,2.28
2022-10-18T09:59:35.579Z,2.75
2022-10-18T10:02:02.313Z,3.65
2022-10-18T10:04:29.094Z,3.22
2022-10-18T10:06:57.198Z,3.78
2022-10-18T10:09:30.056Z,3.58
2022-10-18T10:11:58.115Z,3.85
2022-10-18T10:14:27.592Z,3.08
2022-10-18T10:17:02.494Z,5.57
2022-10-18T10:22:12.189Z,4.95
2022-10-18T10:24:54.787Z,6.72
2022-10-18T10:27:29.765Z,4.18
2022-10-18T10:30:06.790Z,12.13
2022-10-18T10:32:46.711Z,3.75
2022-10-18T10:35:53.207Z,5.18
2022-10-18T10:38:26.246Z,2.10
2022-10-18T10:40:53.425Z,4.88
2022-10-18T10:43:37.625Z,4.60
2022-10-18T10:46:12.888Z,4.40
2022-10-18T10:48:41.631Z,9.07
2022-10-18T10:51:11.107Z,14.63
2022-10-18T10:53:51.417Z,3.85
2022-10-18T10:56:50.106Z,3.72
2022-10-18T10:59:20.531Z,2.15
2022-10-18T11:01:51.510Z,5.68
2022-10-18T11:04:30.240Z,5.82
2022-10-18T11:07:17.105Z,5.78
2022-10-18T11:09:59.000Z,2.15
2022-10-18T11:12:33.458Z,3.25
2022-10-18T11:15:18.393Z,2.75
2022-10-18T11:17:51.307Z,3.50
2022-10-18T11:20:24.301Z,3.08
2022-10-18T11:22:56.963Z,3.15
2022-10-18T11:25:27.875Z,5.97
2022-10-18T11:28:06.046Z,4.57
2022-10-18T11:30:58.995Z,4.80
2022-10-18T11:34:14.043Z,5.25
2022-10-18T11:37:29.961Z,2.67
2022-10-18T11:40:06.873Z,2.85
2022-10-18T11:43:14.792Z,2.97
2022-10-18T11:46:00.631Z,4.45
2022-10-18T11:48:59.009Z,6.07
2022-10-18T11:51:34.097Z,2.70
2022-10-18T11:54:33.586Z,3.08
2022-10-18T11:57:22.074Z,1.88
2022-10-18T11:59:57.780Z,2.10
2022-10-18T12:02:45.646Z,2.95
2022-10-18T12:05:28.723Z,2.05
2022-10-18T12:08:15.551Z,3.85
2022-10-18T12:11:03.890Z,3.67
2022-10-18T12:13:58.874Z,2.20
2022-10-18T12:16:49.991Z,3.83
2022-10-18T12:19:26.746Z,1.83
2022-10-18T12:22:03.177Z,1.88
2022-10-18T12:24:32.059Z,3.58
2022-10-18T12:27:01.570Z,2.78
2022-10-18T12:29:53.601Z,3.33
2022-10-18T12:32:34.914Z,2.33
2022-10-18T12:35:11.289Z,2.30
2022-10-18T12:37:56.007Z,5.00
2022-10-18T12:40:44.600Z,2.10
2022-10-18T12:43:21.497Z,3.42
2022-10-18T12:45:55.271Z,2.25
2022-10-18T12:48:33.213Z,2.53
2022-10-18T12:51:05.919Z,2.88
2022-10-18T12:53:33.826Z,3.88
2022-10-18T12:56:36.828Z,3.30
2022-10-18T12:59:18.833Z,4.00
2022-10-18T13:01:51.679Z,3.65
2022-10-18T13:04:27.940Z,4.07
2022-10-18T13:07:00.710Z,2.15
2022-10-18T13:09:29.899Z,3.75
2022-10-18T13:12:21.183Z,4.82
2022-10-18T13:15:37.649Z,5.45
2022-10-18T13:18:24.460Z,2.55
2022-10-18T13:21:10.594Z,3.30
2022-10-18T13:24:00.372Z,3.33
2022-10-18T13:26:58.132Z,1.98
2022-10-18T13:29:54.239Z,5.20
2022-10-18T13:32:57.390Z,2.78
2022-10-18T13:35:43.385Z,3.08
2022-10-18T13:38:47.820Z,2.28
2022-10-18T13:44:23.018Z,2.72
2022-10-18T13:46:49.659Z,2.17
2022-10-18T13:49:31.538Z,3.40
2022-10-18T13:52:20.764Z,3.00
2022-10-18T13:54:56.631Z,3.42
2022-10-18T13:57:47.706Z,3.75
2022-10-18T14:00:37.933Z,2.70
2022-10-18T14:04:02.461Z,3.25
2022-10-18T14:06:50.555Z,3.45
2022-10-18T14:09:43.377Z,4.15
2022-10-18T14:12:44.278Z,4.80
2022-10-18T14:15:34.466Z,3.88
2022-10-18T14:18:41.573Z,4.40
2022-10-18T14:21:19.859Z,3.33
2022-10-18T14:23:48.445Z,4.13
2022-10-18T14:26:18.628Z,2.88
2022-10-18T14:28:59.528Z,5.18
2022-10-18T14:31:27.630Z,5.63
2022-10-18T14:33:58.439Z,6.53
2022-10-18T14:36:29.642Z,10.95
2022-10-18T14:38:59.357Z,15.45
2022-10-18T14:41:28.843Z,17.92
2022-10-18T14:44:29.715Z,46.70
2022-10-18T14:47:01.407Z,17.25
2022-10-18T14:49:28.886Z,9.82
2022-10-18T14:51:58.681Z,10.00
2022-10-18T14:54:31.687Z,17.60
2022-10-18T14:57:00.805Z,18.60
2022-10-18T14:59:30.967Z,25.20
2022-10-18T15:02:14.401Z,25.55
2022-10-18T15:04:46.056Z,35.70
2022-10-18T15:07:18.349Z,37.92
2022-10-18T15:09:47.239Z,45.33
2022-10-18T15:12:16.446Z,42.55
2022-10-18T15:14:44.828Z,31.02
2022-10-18T15:17:21.261Z,30.73
2022-10-18T15:20:28.707Z,59.47
2022-10-18T15:23:21.194Z,80.43
2022-10-18T15:25:48.791Z,63.80
2022-10-18T15:28:29.484Z,47.03
2022-10-18T15:30:58.600Z,70.82
2022-10-18T15:33:27.719Z,85.75
2022-10-18T15:35:55.124Z,94.28
2022-10-18T15:38:29.451Z,58.47
2022-10-18T15:40:56.155Z,65.13
2022-10-18T15:43:26.186Z,54.05
2022-10-18T15:45:58.825Z,43.30
2022-10-18T15:48:33.742Z,57.80
2022-10-18T15:51:04.865Z,52.20
2022-10-18T15:53:43.849Z,38.65
2022-10-18T15:56:32.820Z,36.55
2022-10-18T15:59:04.335Z,37.92
2022-10-18T16:01:44.379Z,31.48
2022-10-18T16:04:20.234Z,23.55
2022-10-18T16:06:46.873Z,21.42
2022-10-18T16:09:17.921Z,22.80
2022-10-18T16:11:45.346Z,23.63
2022-10-18T16:14:12.035Z,24.65
2022-10-18T16:16:40.430Z,31.10
2022-10-18T16:19:07.967Z,33.95
2022-10-18T16:21:38.183Z,40.70
2022-10-18T16:24:05.928Z,39.55
2022-10-18T16:26:33.284Z,37.10
2022-10-18T16:29:00.777Z,33.58
2022-10-18T16:31:30.866Z,56.85
2022-10-18T16:33:58.538Z,67.40
2022-10-18T16:36:29.101Z,54.97
2022-10-18T16:38:57.661Z,47.20
2022-10-18T16:41:24.803Z,51.35
2022-10-18T16:43:51.554Z,55.95
2022-10-18T16:46:21.181Z,50.42
2022-10-18T16:48:49.923Z,39.58
2022-10-18T16:51:17.994Z,28.08
2022-10-18T16:53:44.872Z,35.15
2022-10-18T16:56:39.046Z,36.63
2022-10-18T16:59:05.774Z,29.58
2022-10-18T17:01:32.746Z,31.58
2022-10-18T17:03:59.416Z,38.08
2022-10-18T17:06:28.399Z,42.35
2022-10-18T17:08:56.224Z,49.53
2022-10-18T17:11:25.450Z,47.78
2022-10-18T17:13:52.281Z,48.20
2022-10-18T17:16:34.911Z,39.80
2022-10-18T17:19:04.721Z,40.25
2022-10-18T17:21:33.542Z,34.97
2022-10-18T17:24:04.517Z,34.08
2022-10-18T17:26:32.505Z,36.60
2022-10-18T17:29:05.504Z,29.02
2022-10-18T17:31:33.220Z,23.30
2022-10-18T17:34:01.860Z,23.23
2022-10-18T17:36:32.763Z,23.63
2022-10-18T17:38:59.552Z,22.77
2022-10-18T17:41:26.352Z,22.20
2022-10-18T17:43:53.429Z,31.50
2022-10-18T17:46:20.356Z,35.72
2022-10-18T17:48:47.482Z,38.63
2022-10-18T17:51:16.544Z,33.40
2022-10-18T17:53:43.299Z,34.70
2022-10-18T17:56:11.107Z,31.48
2022-10-18T17:58:37.848Z,28.50
2022-10-18T18:01:14.920Z,28.27
2022-10-18T18:03:42.060Z,24.55
2022-10-18T18:06:20.976Z,35.13
2022-10-18T18:08:48.592Z,30.63
2022-10-18T18:11:16.377Z,28.58
2022-10-18T18:13:43.687Z,31.10
2022-10-18T18:16:21.897Z,38.72
2022-10-18T18:18:51.213Z,35.22
2022-10-18T18:21:17.988Z,40.15
2022-10-18T18:23:45.239Z,41.45
2022-10-18T18:26:11.942Z,24.02
2022-10-18T18:28:39.029Z,21.92
2022-10-18T18:31:17.607Z,15.90
2022-10-18T18:33:45.102Z,19.10
2022-10-18T18:36:12.676Z,17.52
2022-10-18T18:38:42.738Z,15.77
2022-10-18T18:41:18.807Z,20.95
2022-10-18T18:44:00.344Z,19.70
2022-10-18T18:46:29.554Z,19.35
2022-10-18T18:48:59.351Z,20.13
2022-10-18T18:51:26.398Z,17.10
2022-10-18T18:53:53.295Z,20.02
2022-10-18T18:56:23.655Z,25.83
2022-10-18T18:58:52.561Z,18.95
2022-10-18T19:01:24.953Z,19.70
2022-10-18T19:03:53.550Z,24.45
2022-10-18T19:06:23.531Z,19.27
2022-10-18T19:08:52.693Z,22.40
2022-10-18T19:11:21.457Z,25.58
2022-10-18T19:13:49.011Z,23.05
2022-10-18T19:16:24.866Z,15.73
2022-10-18T19:19:05.480Z,18.73
2022-10-18T19:21:35.406Z,21.08
2022-10-18T19:24:03.572Z,19.50
2022-10-18T19:26:44.972Z,22.73
2022-10-18T19:29:21.448Z,19.80
2022-10-18T19:31:49.392Z,20.70
2022-10-18T19:34:17.373Z,21.25
2022-10-18T19:36:46.604Z,25.83
2022-10-18T19:39:24.678Z,25.15
2022-10-18T19:41:55.281Z,23.17
2022-10-18T19:44:23.844Z,21.63
2022-10-18T19:46:51.047Z,25.15
2022-10-18T19:49:18.509Z,19.90
2022-10-18T19:51:45.331Z,15.95
2022-10-18T19:54:13.607Z,17.95
2022-10-18T19:56:43.742Z,18.70
2022-10-18T19:59:11.952Z,19.50
2022-10-18T20:01:38.977Z,20.70
2022-10-18T20:04:07.412Z,18.40
2022-10-18T20:06:35.131Z,15.98
2022-10-18T20:09:01.835Z,19.67
2022-10-18T20:11:29.250Z,22.90
2022-10-18T20:13:56.896Z,19.63
2022-10-18T20:16:28.314Z,20.08
2022-10-18T20:19:00.160Z,21.25
2022-10-18T20:21:28.745Z,21.58
2022-10-18T20:23:55.936Z,21.40
2022-10-18T20:26:25.379Z,18.90
2022-10-18T20:28:57.150Z,21.15
2022-10-18T20:31:35.677Z,17.90
2022-10-18T20:34:05.027Z,16.58
2022-10-18T20:36:32.660Z,23.15
2022-10-18T20:38:59.596Z,19.02
2022-10-18T20:41:27.917Z,24.55
2022-10-18T20:43:59.802Z,22.83
2022-10-18T20:46:29.879Z,19.33
2022-10-18T20:48:56.621Z,17.10
2022-10-18T20:51:23.828Z,13.98
2022-10-18T20:53:51.463Z,13.18
2022-10-18T20:56:21.215Z,14.40
2022-10-18T20:58:51.032Z,15.02
2022-10-18T21:01:20.922Z,14.90
2022-10-18T21:03:49.155Z,14.15
2022-10-18T21:06:21.670Z,11.98
2022-10-18T21:08:52.966Z,13.55
2022-10-18T21:11:19.674Z,12.07
2022-10-18T21:13:59.013Z,13.82
2022-10-18T21:16:26.818Z,12.77
2022-10-18T21:18:53.723Z,13.50
2022-10-18T21:21:23.189Z,13.73
2022-10-18T21:23:51.165Z,22.50
2022-10-18T21:26:19.054Z,28.40
2022-10-18T21:28:46.011Z,17.27
2022-10-18T21:31:18.335Z,15.07
2022-10-18T21:33:46.576Z,12.90
2022-10-18T21:36:14.615Z,19.10
2022-10-18T21:38:45.669Z,17.10
2022-10-18T21:41:14.587Z,21.20
2022-10-18T21:43:43.772Z,23.27
2022-10-18T21:46:11.746Z,16.50
2022-10-18T21:48:39.439Z,13.30
2022-10-18T21:51:07.550Z,12.60
2022-10-18T21:53:34.896Z,10.63
2022-10-18T21:56:06.906Z,14.93
2022-10-18T21:58:37.115Z,12.88
2022-10-18T22:01:11.734Z,15.00
2022-10-18T22:03:38.685Z,15.32
2022-10-18T22:06:13.710Z,12.15
2022-10-18T22:08:48.082Z,13.13
2022-10-18T22:11:15.049Z,12.98
2022-10-18T22:13:42.456Z,10.90
2022-10-18T22:16:11.659Z,10.63
2022-10-18T22:18:38.357Z,11.45
2022-10-18T22:21:07.439Z,12.18
2022-10-18T22:23:36.381Z,11.38
2022-10-18T22:26:11.481Z,12.45
2022-10-18T22:28:39.671Z,15.02
2022-10-18T22:31:06.969Z,15.40
2022-10-18T22:33:33.772Z,18.38
2022-10-18T22:36:00.546Z,14.43
2022-10-18T22:38:27.240Z,14.90
2022-10-18T22:40:53.851Z,13.95
2022-10-18T22:43:20.607Z,15.70
2022-10-18T22:45:47.231Z,9.43
2022-10-18T22:48:13.864Z,9.13
2022-10-18T22:50:40.568Z,11.02
2022-10-18T22:53:07.513Z,10.48
2022-10-18T22:55:34.205Z,10.55
2022-10-18T22:58:00.831Z,9.68
2022-10-18T23:00:27.707Z,10.10
2022-10-18T23:02:54.373Z,9.40
2022-10-18T23:05:21.006Z,9.03
2022-10-18T23:07:49.329Z,16.27
2022-10-18T23:10:16.546Z,18.87
2022-10-18T23:12:43.237Z,19.70
2022-10-18T23:15:10.425Z,17.60
2022-10-18T23:17:37.558Z,16.30
2022-10-18T23:20:05.469Z,17.57
2022-10-18T23:22:34.136Z,14.07
2022-10-18T23:25:01.116Z,12.67
2022-10-18T23:27:29.277Z,11.07
2022-10-18T23:29:56.195Z,8.70
2022-10-18T23:32:22.845Z,8.07
2022-10-18T23:34:49.547Z,9.33
2022-10-18T23:37:16.254Z,36.57
2022-10-18T23:39:42.926Z,25.37
2022-10-18T23:42:09.689Z,14.27
2022-10-18T23:44:36.844Z,9.40
2022-10-18T23:47:03.570Z,9.00
2022-10-18T23:49:30.306Z,7.03
2022-10-18T23:51:56.933Z,11.67
2022-10-18T23:54:23.589Z,10.67
2022-10-18T23:56:50.235Z,10.70
2022-10-18T23:59:17.127Z,9.03
